Blackford, Kentucky
Current Conditions -  °F | °C
As of 4:35 PM on Friday 31 Oct 2014 (Local Time) from K5M9 Reporting Station
Overcast Overcast  
Wind Chill: 33°   Ceiling: 5000
Heat Index: 42°   Visibility: 10mi
Dew Point: 24°   Wind: 25mph
Humidity: 49%   Direction: 330°NNW
Pressure: 30.17"   Gusts: 31mph
Location:  37.45°N, 87.94°W
Report Text: K5M9 312135Z AUTO 33022G27KT 10SM OVC050 06/M04 A3017 RMK AO2 T00581042
Loading
Personal Weather Stations






























Interactive Weather Map
Tropical Storm Tracking
New forecast layout! Learn more

10-Day Weather Forecast

Advertisements
Track Severe Weather on mobile